Terminal Aerodrome Forecast
Issued by NWS

Home | Current Version | Previous Version | Text Only | Print | Product List | Glossary On
Versions: 1 2 3 4 5 6 7 8 9 10 11 12 13 14 15 16
000
FTUS46 KSTO 111700
TAFSCK
TAF
KSCK 111720Z 1118/1218 33008KT P6SM FEW200
     FM120000 31013KT P6SM SKC
     FM120600 33008KT P6SM SKC=

USA.gov is the U.S. government's official web portal to all federal, state and local government web resources and services.